Time;durP1;ratioP1;P1;durP2;ratioP2;P2;SDS_P1;SDS_P2;PMS_P1;PMS_P2;Temp;Humidity;BMP_temperature;BMP_pressure;BME280_temperature;BME280_humidity;BME280_pressure;Samples;Min_cycle;Max_cycle;Signal;HPM_P1;HPM_P2
2022/05/04 00:01:14;;;;;;;;;;;10.00;99.90;;;;;;5015783;28;19929;-72
2022/05/04 00:03:43;;;;;;;;;;;9.90;99.90;;;;;;5015855;28;19925;-73
2022/05/04 00:06:10;;;;;;;;;;;9.90;99.90;;;;;;5015494;28;19976;-73
2022/05/04 00:08:37;;;;;;;;;;;9.90;99.90;;;;;;5015169;28;19976;-73
2022/05/04 00:11:04;;;;;;;;;;;9.80;99.90;;;;;;5015326;28;19925;-74
2022/05/04 00:13:32;;;;;;;;;;;9.70;99.90;;;;;;5016427;28;20384;-76
2022/05/04 00:16:01;;;;;;;;;;;9.70;99.90;;;;;;5015942;28;19926;-73
2022/05/04 00:18:28;;;;;;;;;;;9.60;99.90;;;;;;5015948;28;20305;-73
2022/05/04 00:20:56;;;;;;;;;;;9.60;99.90;;;;;;5016425;28;19960;-74
2022/05/04 00:23:23;;;;;;;;;;;9.60;99.90;;;;;;5016067;28;19925;-74
2022/05/04 00:25:50;;;;;;;;;;;9.60;99.90;;;;;;5016508;28;19987;-72
2022/05/04 00:28:17;;;;;;;;;;;9.70;99.90;;;;;;5015998;28;19925;-73
2022/05/04 00:30:44;;;;;;;;;;;9.60;99.90;;;;;;5015977;28;19926;-72
2022/05/04 00:33:11;;;;;;;;;;;9.60;99.90;;;;;;5016130;28;19975;-72
2022/05/04 00:35:37;;;;;;;;;;;9.50;99.90;;;;;;5016273;28;19925;-73
2022/05/04 00:38:06;;;;;;;;;;;9.50;99.90;;;;;;5016310;28;19926;-72
2022/05/04 00:40:33;;;;;;;;;;;9.50;99.90;;;;;;5016006;28;19925;-73
2022/05/04 00:42:59;;;;;;;;;;;9.40;99.90;;;;;;5016068;28;20364;-73
2022/05/04 00:45:26;;;;;;;;;;;9.40;99.90;;;;;;5016628;28;19925;-72
2022/05/04 00:47:53;;;;;;;;;;;9.30;99.90;;;;;;5016079;28;19929;-73
2022/05/04 00:50:20;;;;;;;;;;;9.20;99.90;;;;;;5015241;28;19925;-73
2022/05/04 00:52:48;;;;;;;;;;;9.20;99.90;;;;;;5014677;28;19925;-73
2022/05/04 00:55:18;;;;;;;;;;;9.20;99.90;;;;;;5015291;28;19932;-72
2022/05/04 01:00:30;;;;;;;;;;;9.20;99.90;;;;;;5032177;28;19921;-73
2022/05/04 01:02:57;;;;;;;;;;;9.20;99.90;;;;;;5035739;28;19925;-72
2022/05/04 01:05:24;;;;;;;;;;;9.20;99.90;;;;;;5034946;28;19925;-73
2022/05/04 01:07:52;;;;;;;;;;;9.20;99.90;;;;;;5035132;28;19929;-73
2022/05/04 01:10:20;;;;;;;;;;;9.20;99.90;;;;;;5033276;28;19925;-73
2022/05/04 01:12:47;;;;;;;;;;;9.20;99.90;;;;;;5033666;28;19929;-74
2022/05/04 01:15:15;;;;;;;;;;;9.20;99.90;;;;;;5034688;28;19975;-73
2022/05/04 01:17:41;;;;;;;;;;;9.10;99.90;;;;;;5036693;28;19932;-72
2022/05/04 01:20:09;;;;;;;;;;;9.10;99.90;;;;;;5038550;28;19925;-72
2022/05/04 01:22:37;;;;;;;;;;;9.00;99.90;;;;;;5037626;28;19925;-73
2022/05/04 01:25:05;;;;;;;;;;;9.00;99.90;;;;;;5039704;28;19925;-73
2022/05/04 01:27:31;;;;;;;;;;;8.90;99.90;;;;;;5038969;28;19925;-73
2022/05/04 01:29:58;;;;;;;;;;;8.90;99.90;;;;;;5038548;28;19929;-73
2022/05/04 01:32:25;;;;;;;;;;;8.80;99.90;;;;;;5040249;28;19937;-74
2022/05/04 01:34:52;;;;;;;;;;;8.80;99.90;;;;;;5039166;28;19971;-73
2022/05/04 01:37:19;;;;;;;;;;;8.80;99.90;;;;;;5039033;28;19925;-74
2022/05/04 01:39:47;;;;;;;;;;;8.70;99.90;;;;;;5038920;28;19926;-73
2022/05/04 01:42:16;;;;;;;;;;;8.60;99.90;;;;;;5039807;28;19925;-73
2022/05/04 01:44:43;;;;;;;;;;;8.50;99.90;;;;;;5038497;28;20004;-73
2022/05/04 01:47:10;;;;;;;;;;;8.50;99.90;;;;;;5039570;28;19925;-75
2022/05/04 01:49:38;;;;;;;;;;;8.50;99.90;;;;;;5038340;28;19924;-73
2022/05/04 01:52:05;;;;;;;;;;;8.40;99.90;;;;;;5038031;28;19925;-73
2022/05/04 01:54:31;;;;;;;;;;;8.40;99.90;;;;;;5037793;28;19929;-73
2022/05/04 01:57:00;;;;;;;;;;;8.40;99.90;;;;;;5038635;28;19929;-72
2022/05/04 01:59:27;;;;;;;;;;;8.30;99.90;;;;;;5038416;28;19925;-73
2022/05/04 02:01:54;;;;;;;;;;;8.30;99.90;;;;;;5038410;28;19932;-74
2022/05/04 02:04:21;;;;;;;;;;;8.30;99.90;;;;;;5038219;28;19925;-72
2022/05/04 02:06:48;;;;;;;;;;;8.20;99.90;;;;;;5037608;28;19925;-74
2022/05/04 02:09:15;;;;;;;;;;;8.20;99.90;;;;;;5037371;28;20024;-74
2022/05/04 02:11:42;;;;;;;;;;;8.30;99.90;;;;;;5038051;28;19929;-73
2022/05/04 02:14:10;;;;;;;;;;;8.30;99.90;;;;;;5038239;28;20015;-73
2022/05/04 02:16:37;;;;;;;;;;;8.20;99.90;;;;;;5038151;28;19925;-73
2022/05/04 02:19:03;;;;;;;;;;;8.00;99.90;;;;;;5037559;28;19929;-73
2022/05/04 02:21:30;;;;;;;;;;;8.00;99.90;;;;;;5038136;28;19925;-74
2022/05/04 02:23:57;;;;;;;;;;;8.00;99.90;;;;;;5037615;28;19931;-73
2022/05/04 02:26:24;;;;;;;;;;;7.90;99.90;;;;;;5038058;28;19929;-72
2022/05/04 02:28:51;;;;;;;;;;;7.90;99.90;;;;;;5037343;28;19984;-73
2022/05/04 02:31:19;;;;;;;;;;;7.80;99.90;;;;;;5037514;28;19925;-73
2022/05/04 02:33:47;;;;;;;;;;;7.80;99.90;;;;;;5038211;28;19925;-73
2022/05/04 02:38:59;;;;;;;;;;;7.80;99.90;;;;;;5037544;28;19924;-73
2022/05/04 02:41:25;;;;;;;;;;;7.70;99.90;;;;;;5038573;28;20381;-72
2022/05/04 02:43:52;;;;;;;;;;;7.70;99.90;;;;;;5037479;28;19933;-73
2022/05/04 02:46:23;;;;;;;;;;;7.70;99.90;;;;;;5037500;28;19929;-73
2022/05/04 02:48:49;;;;;;;;;;;7.70;99.90;;;;;;5037389;28;19972;-73
2022/05/04 02:51:16;;;;;;;;;;;7.70;99.90;;;;;;5036645;28;19925;-73
2022/05/04 02:53:43;;;;;;;;;;;7.70;99.90;;;;;;5036492;28;20377;-72
2022/05/04 02:56:10;;;;;;;;;;;7.60;99.90;;;;;;5037686;28;20340;-72
2022/05/04 02:58:37;;;;;;;;;;;7.60;99.90;;;;;;5036983;28;19925;-71
2022/05/04 03:02:26;;;;;;;;;;;7.60;99.90;;;;;;5035447;28;19940;-73
2022/05/04 03:03:56;;;;;;;;;;;7.60;99.90;;;;;;5036010;28;19931;-73
2022/05/04 03:06:23;;;;;;;;;;;7.60;99.90;;;;;;5036501;28;19932;-72
2022/05/04 03:08:50;;;;;;;;;;;7.60;99.90;;;;;;5036666;28;20266;-72
2022/05/04 03:14:01;;;;;;;;;;;7.50;99.90;;;;;;5036683;28;19935;-72
2022/05/04 03:16:28;;;;;;;;;;;7.40;99.90;;;;;;5036602;28;19929;-72
2022/05/04 03:18:54;;;;;;;;;;;7.40;99.90;;;;;;5036211;28;20397;-72
2022/05/04 03:21:23;;;;;;;;;;;7.40;99.90;;;;;;5036310;28;19929;-72
2022/05/04 03:23:49;;;;;;;;;;;7.40;99.90;;;;;;5035570;28;19925;-73
2022/05/04 03:26:18;;;;;;;;;;;7.50;99.90;;;;;;5036139;28;19925;-72
2022/05/04 03:28:45;;;;;;;;;;;7.50;99.90;;;;;;5035992;28;19925;-73
2022/05/04 03:31:12;;;;;;;;;;;7.50;99.90;;;;;;5035895;28;19979;-74
2022/05/04 03:33:39;;;;;;;;;;;7.40;99.90;;;;;;5035649;28;19947;-74
2022/05/04 03:36:06;;;;;;;;;;;7.40;99.90;;;;;;5036190;28;19928;-73
2022/05/04 03:38:34;;;;;;;;;;;7.40;99.90;;;;;;5035689;28;20351;-74
2022/05/04 03:41:01;;;;;;;;;;;7.40;99.90;;;;;;5034699;28;19929;-73
2022/05/04 03:43:27;;;;;;;;;;;7.40;99.90;;;;;;5035273;28;20253;-74
2022/05/04 03:45:54;;;;;;;;;;;7.40;99.90;;;;;;5035914;28;19929;-73
2022/05/04 03:48:21;;;;;;;;;;;7.30;99.90;;;;;;5036124;28;19932;-73
2022/05/04 03:50:48;;;;;;;;;;;7.30;99.90;;;;;;5035096;28;19926;-73
2022/05/04 03:53:15;;;;;;;;;;;7.30;99.90;;;;;;5035959;28;19929;-73
2022/05/04 03:55:43;;;;;;;;;;;7.30;99.90;;;;;;5035239;28;19925;-73
2022/05/04 03:58:10;;;;;;;;;;;7.30;99.90;;;;;;5035269;28;19925;-74
2022/05/04 04:00:37;;;;;;;;;;;7.30;99.90;;;;;;5035044;28;19929;-74
2022/05/04 04:03:03;;;;;;;;;;;7.30;99.90;;;;;;5035552;28;20409;-73
2022/05/04 04:05:30;;;;;;;;;;;7.30;99.90;;;;;;5035855;28;19931;-73
2022/05/04 04:07:57;;;;;;;;;;;7.30;99.90;;;;;;5035751;28;19925;-72
2022/05/04 04:10:24;;;;;;;;;;;7.30;99.90;;;;;;5035066;28;19976;-73
2022/05/04 04:12:52;;;;;;;;;;;7.30;99.90;;;;;;5035591;28;19924;-73
2022/05/04 04:15:19;;;;;;;;;;;7.30;99.90;;;;;;5034884;28;19947;-73
2022/05/04 04:17:47;;;;;;;;;;;7.30;99.90;;;;;;5035457;28;19943;-73
2022/05/04 04:22:58;;;;;;;;;;;7.40;99.90;;;;;;5035788;28;19944;-73
2022/05/04 04:25:25;;;;;;;;;;;7.40;99.90;;;;;;5035389;28;19925;-73
2022/05/04 04:27:53;;;;;;;;;;;7.40;99.90;;;;;;5035109;28;19932;-73
2022/05/04 04:30:20;;;;;;;;;;;7.40;99.90;;;;;;5034324;28;19925;-73
2022/05/04 04:32:46;;;;;;;;;;;7.50;99.90;;;;;;5034664;28;19925;-73
2022/05/04 04:35:13;;;;;;;;;;;7.50;99.90;;;;;;5034655;28;19932;-74
2022/05/04 04:37:40;;;;;;;;;;;7.40;99.90;;;;;;5034851;28;19947;-73
2022/05/04 04:40:10;;;;;;;;;;;7.40;99.90;;;;;;5035006;28;19933;-74
2022/05/04 04:42:37;;;;;;;;;;;7.40;99.90;;;;;;5035041;28;19925;-74
2022/05/04 04:45:06;;;;;;;;;;;7.40;99.90;;;;;;5034256;28;19929;-74
2022/05/04 04:47:33;;;;;;;;;;;7.30;99.90;;;;;;5034489;28;19975;-74
2022/05/04 04:50:00;;;;;;;;;;;7.30;99.90;;;;;;5034373;28;19925;-74
2022/05/04 04:52:27;;;;;;;;;;;7.30;99.90;;;;;;5036321;28;19925;-74
2022/05/04 04:54:54;;;;;;;;;;;7.30;99.90;;;;;;5038442;28;19983;-73
2022/05/04 04:57:20;;;;;;;;;;;7.30;99.90;;;;;;5037956;28;19929;-74
2022/05/04 04:59:49;;;;;;;;;;;7.30;99.90;;;;;;5037865;28;19925;-74
2022/05/04 05:02:17;;;;;;;;;;;7.30;99.90;;;;;;5032734;28;20036;-73
2022/05/04 05:04:44;;;;;;;;;;;7.30;99.90;;;;;;5032300;28;19932;-74
2022/05/04 05:07:11;;;;;;;;;;;7.30;99.90;;;;;;5057302;23;19924;-74
2022/05/04 05:09:37;;;;;;;;;;;7.30;99.90;;;;;;5073306;28;20031;-76
2022/05/04 05:12:04;;;;;;;;;;;7.30;99.90;;;;;;5073144;28;19925;-74
2022/05/04 05:17:15;;;;;;;;;;;7.50;99.90;;;;;;5073283;28;19924;-74
2022/05/04 05:19:43;;;;;;;;;;;7.50;99.90;;;;;;5073059;28;20027;-73
2022/05/04 05:22:10;;;;;;;;;;;7.60;99.90;;;;;;5073288;28;19978;-74
2022/05/04 05:24:37;;;;;;;;;;;7.60;99.90;;;;;;5072582;28;19924;-74
2022/05/04 05:27:04;;;;;;;;;;;7.70;99.90;;;;;;5072241;28;19935;-74
2022/05/04 05:29:31;;;;;;;;;;;7.70;99.90;;;;;;5071920;28;20399;-74
2022/05/04 05:31:57;;;;;;;;;;;7.70;99.90;;;;;;5068250;28;20445;-74
2022/05/04 05:34:26;;;;;;;;;;;7.80;99.90;;;;;;5072113;28;19925;-74
2022/05/04 05:36:54;;;;;;;;;;;7.80;99.90;;;;;;5072808;28;19971;-75
2022/05/04 05:39:21;;;;;;;;;;;7.80;99.90;;;;;;5072582;28;19954;-74
2022/05/04 05:41:48;;;;;;;;;;;7.90;99.90;;;;;;5072025;28;19970;-75
2022/05/04 05:44:14;;;;;;;;;;;7.90;99.90;;;;;;5071828;28;19924;-73
2022/05/04 05:46:41;;;;;;;;;;;8.00;99.90;;;;;;5072522;28;19974;-73
2022/05/04 05:49:08;;;;;;;;;;;8.00;99.90;;;;;;5071810;28;19924;-73
2022/05/04 05:51:35;;;;;;;;;;;8.10;99.90;;;;;;5072479;28;19924;-73
2022/05/04 05:54:03;;;;;;;;;;;8.10;99.90;;;;;;5072579;28;19924;-75
2022/05/04 05:56:30;;;;;;;;;;;8.20;99.90;;;;;;5072629;28;19932;-73
2022/05/04 05:58:56;;;;;;;;;;;8.20;99.90;;;;;;5072326;28;19928;-73
2022/05/04 06:01:23;;;;;;;;;;;8.30;99.90;;;;;;5072350;28;19959;-73
2022/05/04 06:03:50;;;;;;;;;;;8.30;99.90;;;;;;5071259;28;19924;-74
2022/05/04 06:06:17;;;;;;;;;;;8.40;99.90;;;;;;5070556;28;19928;-76
2022/05/04 06:08:44;;;;;;;;;;;8.50;99.90;;;;;;5070203;28;20395;-73
2022/05/04 06:11:12;;;;;;;;;;;8.60;99.90;;;;;;5071924;28;20384;-74
2022/05/04 06:13:39;;;;;;;;;;;8.60;99.90;;;;;;5072429;28;19931;-75
2022/05/04 06:16:06;;;;;;;;;;;8.70;99.90;;;;;;5072707;28;19924;-77
2022/05/04 06:18:33;;;;;;;;;;;8.70;99.90;;;;;;5072548;28;19928;-75
2022/05/04 06:21:00;;;;;;;;;;;8.70;99.90;;;;;;5072125;28;20001;-71
2022/05/04 06:23:27;;;;;;;;;;;8.80;99.90;;;;;;5071882;28;19932;-74
2022/05/04 06:25:54;;;;;;;;;;;8.90;99.90;;;;;;5066275;28;19924;-76
2022/05/04 06:28:22;;;;;;;;;;;8.90;99.90;;;;;;5071611;28;19950;-74
2022/05/04 06:36:17;;;;;;;;;;;9.10;99.90;;;;;;5071655;28;20011;-74
2022/05/04 06:38:44;;;;;;;;;;;9.10;99.90;;;;;;5071150;28;19924;-75
2022/05/04 06:41:11;;;;;;;;;;;9.20;99.90;;;;;;5071386;28;19929;-75
2022/05/04 06:43:39;;;;;;;;;;;9.30;99.90;;;;;;5071659;28;19927;-74
2022/05/04 06:46:06;;;;;;;;;;;9.40;99.90;;;;;;5071750;28;20427;-74
2022/05/04 06:48:33;;;;;;;;;;;9.60;99.90;;;;;;5071324;28;19925;-76
2022/05/04 06:50:59;;;;;;;;;;;9.60;99.90;;;;;;5071330;28;19970;-73
2022/05/04 06:53:26;;;;;;;;;;;9.70;99.90;;;;;;5071316;28;20338;-73
2022/05/04 06:55:53;;;;;;;;;;;9.80;99.90;;;;;;5071302;28;19928;-77
2022/05/04 06:58:20;;;;;;;;;;;9.80;99.90;;;;;;5071234;28;19924;-75
2022/05/04 07:00:48;;;;;;;;;;;9.80;99.90;;;;;;5071300;28;19994;-74
2022/05/04 07:03:14;;;;;;;;;;;9.90;99.90;;;;;;5071306;28;19978;-74
2022/05/04 07:05:41;;;;;;;;;;;10.00;99.90;;;;;;5070990;28;19928;-74
2022/05/04 07:08:08;;;;;;;;;;;10.10;99.90;;;;;;5070882;28;19970;-77
2022/05/04 07:10:35;;;;;;;;;;;10.20;99.90;;;;;;5071127;28;20384;-74
2022/05/04 07:13:02;;;;;;;;;;;10.20;99.90;;;;;;5071229;28;19924;-74
2022/05/04 07:15:29;;;;;;;;;;;10.30;99.90;;;;;;5070641;28;19948;-74
2022/05/04 07:17:57;;;;;;;;;;;10.20;99.90;;;;;;5070691;28;20007;-74
2022/05/04 07:20:24;;;;;;;;;;;10.30;99.90;;;;;;5071399;28;19924;-72
2022/05/04 07:22:51;;;;;;;;;;;10.50;99.90;;;;;;5069968;28;19924;-74
2022/05/04 07:25:19;;;;;;;;;;;10.80;99.90;;;;;;5056580;28;19924;-74
2022/05/04 07:27:45;;;;;;;;;;;11.10;99.90;;;;;;5068828;28;19924;-74
2022/05/04 07:30:12;;;;;;;;;;;11.40;99.90;;;;;;5062858;28;20457;-74
2022/05/04 07:32:39;;;;;;;;;;;11.60;99.90;;;;;;5068773;28;20466;-76
2022/05/04 07:35:08;;;;;;;;;;;11.70;99.90;;;;;;5066558;28;19924;-74
2022/05/04 07:37:35;;;;;;;;;;;11.90;99.90;;;;;;5070387;28;19925;-77
2022/05/04 07:42:46;;;;;;;;;;;12.10;99.90;;;;;;5069122;28;20074;-73
2022/05/04 07:45:15;;;;;;;;;;;12.10;99.90;;;;;;5070693;28;20285;-73
2022/05/04 07:47:41;;;;;;;;;;;12.00;99.90;;;;;;5071246;28;19952;-69
2022/05/04 07:50:11;;;;;;;;;;;12.10;99.90;;;;;;5070619;28;19973;-76
2022/05/04 07:52:38;;;;;;;;;;;12.10;99.90;;;;;;5070727;28;19928;-74
2022/05/04 07:55:06;;;;;;;;;;;12.20;99.90;;;;;;5070195;28;19973;-74
2022/05/04 07:57:33;;;;;;;;;;;12.20;99.90;;;;;;5070300;28;19983;-74
2022/05/04 08:05:32;;;;;;;;;;;12.30;99.90;;;;;;5069973;28;19921;-76
2022/05/04 08:08:00;;;;;;;;;;;12.40;99.90;;;;;;5070113;28;20538;-76
2022/05/04 08:10:27;;;;;;;;;;;12.50;99.90;;;;;;5069735;28;19932;-74
2022/05/04 08:12:54;;;;;;;;;;;12.50;99.90;;;;;;5070130;28;19971;-74
2022/05/04 08:15:20;;;;;;;;;;;12.40;99.90;;;;;;5070070;28;19924;-74
2022/05/04 08:17:47;;;;;;;;;;;12.30;99.90;;;;;;5069901;28;19928;-77
2022/05/04 08:20:14;;;;;;;;;;;12.20;99.90;;;;;;5069846;28;19974;-74
2022/05/04 08:22:43;;;;;;;;;;;12.10;99.90;;;;;;5070170;28;19924;-74
2022/05/04 08:25:10;;;;;;;;;;;11.90;99.90;;;;;;5069956;28;19925;-77
2022/05/04 08:27:37;;;;;;;;;;;11.80;99.90;;;;;;5069521;28;19924;-74
2022/05/04 08:30:05;;;;;;;;;;;11.90;99.90;;;;;;5069756;28;19931;-75
2022/05/04 08:32:31;;;;;;;;;;;12.00;99.90;;;;;;5069653;28;19924;-73
2022/05/04 08:34:58;;;;;;;;;;;12.00;99.90;;;;;;5069394;28;19978;-75
2022/05/04 08:37:27;;;;;;;;;;;12.10;99.90;;;;;;5069790;28;19925;-73
2022/05/04 08:39:55;;;;;;;;;;;12.00;99.90;;;;;;5069770;28;20348;-74
2022/05/04 08:42:22;;;;;;;;;;;12.00;99.90;;;;;;5069891;28;20327;-74
2022/05/04 08:44:52;;;;;;;;;;;12.10;99.90;;;;;;5069547;28;19960;-77
2022/05/04 08:47:21;;;;;;;;;;;12.30;99.90;;;;;;5069600;28;19940;-75
2022/05/04 08:49:48;;;;;;;;;;;12.50;99.90;;;;;;5069708;28;19929;-74
2022/05/04 08:52:15;;;;;;;;;;;12.70;99.90;;;;;;5069532;28;20387;-75
2022/05/04 08:54:42;;;;;;;;;;;12.90;99.90;;;;;;5069160;28;19925;-75
2022/05/04 08:57:10;;;;;;;;;;;13.10;99.90;;;;;;5069602;28;19924;-74
2022/05/04 08:59:37;;;;;;;;;;;13.30;99.90;;;;;;5069240;28;19928;-77
2022/05/04 09:02:04;;;;;;;;;;;13.50;99.90;;;;;;5069328;28;19928;-74
2022/05/04 09:04:31;;;;;;;;;;;13.60;99.90;;;;;;5069475;28;19924;-74
2022/05/04 09:07:00;;;;;;;;;;;13.80;99.90;;;;;;5069838;28;19931;-75
2022/05/04 09:09:27;;;;;;;;;;;13.90;99.90;;;;;;5068870;28;19964;-75
2022/05/04 09:11:53;;;;;;;;;;;14.10;99.90;;;;;;5068930;28;20437;-75
2022/05/04 09:14:25;;;;;;;;;;;14.20;99.90;;;;;;5068259;28;19924;-74
2022/05/04 09:16:53;;;;;;;;;;;14.10;99.90;;;;;;5068618;28;19933;-76
2022/05/04 09:19:20;;;;;;;;;;;14.20;99.90;;;;;;5068873;28;19932;-74
2022/05/04 09:21:47;;;;;;;;;;;14.30;99.90;;;;;;5069388;28;19924;-75
2022/05/04 09:24:15;;;;;;;;;;;14.40;99.90;;;;;;5069298;28;19954;-75
2022/05/04 09:26:42;;;;;;;;;;;14.40;99.90;;;;;;5068522;28;19928;-77
2022/05/04 09:29:11;;;;;;;;;;;14.60;99.90;;;;;;5066859;28;19929;-77
2022/05/04 09:31:40;;;;;;;;;;;14.50;99.90;;;;;;5068978;28;19959;-75
2022/05/04 09:34:08;;;;;;;;;;;14.50;99.90;;;;;;5069081;28;20396;-74
2022/05/04 09:36:35;;;;;;;;;;;14.60;99.90;;;;;;5069668;28;19925;-74
2022/05/04 09:44:55;;;;;;;;;;;15.60;99.90;;;;;;5067085;28;19924;-76
2022/05/04 09:47:24;;;;;;;;;;;15.90;99.90;;;;;;5072450;28;19997;-75
2022/05/04 09:49:53;;;;;;;;;;;16.10;99.90;;;;;;5071691;28;19978;-75
2022/05/04 09:52:22;;;;;;;;;;;16.40;99.90;;;;;;5070935;28;19935;-75
2022/05/04 09:54:49;;;;;;;;;;;16.50;99.90;;;;;;5072061;28;20047;-75
2022/05/04 09:57:16;;;;;;;;;;;16.70;99.90;;;;;;5072501;28;20365;-75
2022/05/04 09:59:43;;;;;;;;;;;16.70;99.90;;;;;;5072091;28;19970;-79
2022/05/04 10:02:13;;;;;;;;;;;16.70;99.90;;;;;;5067849;28;19928;-75
2022/05/04 10:04:42;;;;;;;;;;;16.80;99.90;;;;;;5072060;28;19934;-77
2022/05/04 10:07:10;;;;;;;;;;;16.80;99.90;;;;;;5072498;28;19928;-75
2022/05/04 10:09:37;;;;;;;;;;;16.90;99.90;;;;;;5071976;28;20404;-75
2022/05/04 10:12:06;;;;;;;;;;;17.00;99.90;;;;;;5070376;28;19924;-76
2022/05/04 10:14:33;;;;;;;;;;;17.10;99.90;;;;;;5071174;28;19932;-75
2022/05/04 10:17:07;;;;;;;;;;;17.30;99.90;;;;;;5071945;28;20403;-74
2022/05/04 10:19:37;;;;;;;;;;;17.30;99.90;;;;;;5071839;28;20453;-74
2022/05/04 10:22:09;;;;;;;;;;;17.10;99.90;;;;;;5071745;28;19925;-74
2022/05/04 10:24:36;;;;;;;;;;;17.00;99.90;;;;;;5071900;28;19925;-77
2022/05/04 10:27:16;;;;;;;;;;;16.80;99.90;;;;;;5071918;28;19998;-76
2022/05/04 10:32:35;;;;;;;;;;;16.60;99.90;;;;;;5052007;28;19925;-75
2022/05/04 10:35:21;;;;;;;;;;;16.70;99.90;;;;;;5052411;28;19928;-76
2022/05/04 10:38:04;;;;;;;;;;;17.10;99.90;;;;;;5051569;28;19924;-75
2022/05/04 10:40:32;;;;;;;;;;;17.10;99.90;;;;;;5051640;28;19928;-75
2022/05/04 10:43:01;;;;;;;;;;;17.10;99.90;;;;;;5051218;28;19925;-76
2022/05/04 10:45:29;;;;;;;;;;;17.00;99.90;;;;;;5051272;28;19955;-73
2022/05/04 10:48:14;;;;;;;;;;;17.00;99.90;;;;;;5070982;28;19924;-75
2022/05/04 10:50:47;;;;;;;;;;;17.20;99.90;;;;;;5070364;28;19925;-77
2022/05/04 10:53:34;;;;;;;;;;;17.30;99.90;;;;;;5070501;28;19968;-77
2022/05/04 10:56:03;;;;;;;;;;;17.60;99.90;;;;;;5085780;28;20284;-76
2022/05/04 10:58:30;;;;;;;;;;;18.10;99.90;;;;;;5068710;28;19935;-75
2022/05/04 11:01:04;;;;;;;;;;;18.50;99.90;;;;;;5080181;28;19954;-75
2022/05/04 11:03:32;;;;;;;;;;;18.80;99.90;;;;;;5085251;28;20453;-77
2022/05/04 11:06:02;;;;;;;;;;;19.00;99.90;;;;;;5070306;28;19924;-75
2022/05/04 11:08:35;;;;;;;;;;;18.80;99.90;;;;;;5067515;28;19928;-75
2022/05/04 11:11:02;;;;;;;;;;;18.50;99.90;;;;;;5067350;28;19929;-74
2022/05/04 11:13:30;;;;;;;;;;;18.30;99.90;;;;;;5066764;28;19925;-74
2022/05/04 11:15:58;;;;;;;;;;;18.40;99.90;;;;;;5070612;28;19924;-75
2022/05/04 11:18:26;;;;;;;;;;;18.70;99.90;;;;;;5070718;28;19925;-74
2022/05/04 11:20:53;;;;;;;;;;;18.90;99.90;;;;;;5070729;28;20018;-75
2022/05/04 11:23:23;;;;;;;;;;;18.90;99.90;;;;;;5070532;28;19932;-75
2022/05/04 11:25:51;;;;;;;;;;;18.70;99.90;;;;;;5070872;28;19928;-74
2022/05/04 11:28:19;;;;;;;;;;;18.70;99.90;;;;;;5070894;28;19928;-76
2022/05/04 11:30:46;;;;;;;;;;;18.90;99.90;;;;;;5070605;28;19925;-74
2022/05/04 11:33:16;;;;;;;;;;;19.30;99.90;;;;;;5067813;28;19930;-77
2022/05/04 11:35:43;;;;;;;;;;;19.60;99.90;;;;;;5070513;28;19925;-77
2022/05/04 11:38:16;;;;;;;;;;;19.60;99.90;;;;;;5070447;28;20403;-74
2022/05/04 11:40:44;;;;;;;;;;;19.90;99.90;;;;;;5069699;28;19931;-77
2022/05/04 11:43:21;;;;;;;;;;;22.60;99.90;;;;;;5064445;28;19959;-77
2022/05/04 11:45:48;;;;;;;;;;;26.00;99.90;;;;;;5069048;28;19924;-74
2022/05/04 11:48:16;;;;;;;;;;;27.20;99.90;;;;;;5069679;28;20315;-77
2022/05/04 11:50:43;;;;;;;;;;;29.10;99.90;;;;;;5069388;28;19925;-75
2022/05/04 11:53:10;;;;;;;;;;;31.40;99.90;;;;;;5069618;28;19925;-75
2022/05/04 11:55:36;;;;;;;;;;;32.90;99.90;;;;;;5070783;28;19935;-79
2022/05/04 11:58:07;;;;;;;;;;;34.50;99.90;;;;;;5070908;28;19924;-75
2022/05/04 12:00:35;;;;;;;;;;;35.00;99.90;;;;;;5069817;28;19983;-75
2022/05/04 12:03:01;;;;;;;;;;;35.00;99.90;;;;;;5070360;28;20023;-75
2022/05/04 12:05:28;;;;;;;;;;;35.70;99.90;;;;;;5070642;28;20015;-77
2022/05/04 12:07:55;;;;;;;;;;;36.80;99.90;;;;;;5069691;28;20031;-78
2022/05/04 12:10:22;;;;;;;;;;;36.80;99.90;;;;;;5070909;28;19978;-76
2022/05/04 12:12:48;;;;;;;;;;;34.90;99.90;;;;;;5069980;28;19928;-76
2022/05/04 12:15:16;;;;;;;;;;;34.20;99.80;;;;;;5071223;28;20023;-76
2022/05/04 12:17:44;;;;;;;;;;;34.40;99.90;;;;;;5071214;28;19931;-75
2022/05/04 12:20:11;;;;;;;;;;;34.40;99.90;;;;;;5069502;28;20374;-75
2022/05/04 12:22:40;;;;;;;;;;;35.20;99.90;;;;;;5067839;28;21295;-76
2022/05/04 12:25:07;;;;;;;;;;;36.30;99.90;;;;;;5069950;28;19929;-75
2022/05/04 12:27:35;;;;;;;;;;;37.60;99.90;;;;;;5069657;28;20384;-78
2022/05/04 12:35:32;;;;;;;;;;;36.70;95.90;;;;;;5070725;28;20000;-78
2022/05/04 12:38:00;;;;;;;;;;;35.50;97.00;;;;;;5071010;28;19932;-75
2022/05/04 12:40:27;;;;;;;;;;;36.10;96.60;;;;;;5070608;28;20379;-76
2022/05/04 12:42:54;;;;;;;;;;;36.60;96.90;;;;;;5070820;28;19970;-75
2022/05/04 12:45:24;;;;;;;;;;;37.00;97.60;;;;;;5070721;28;19956;-75
2022/05/04 12:47:52;;;;;;;;;;;35.00;96.40;;;;;;5070558;28;19928;-76
2022/05/04 12:50:20;;;;;;;;;;;35.40;97.10;;;;;;5070873;28;19971;-76
2022/05/04 12:52:48;;;;;;;;;;;37.20;94.80;;;;;;5069109;28;20392;-75
2022/05/04 12:55:14;;;;;;;;;;;37.80;95.70;;;;;;5070202;28;20434;-75
2022/05/04 12:57:42;;;;;;;;;;;40.10;97.90;;;;;;5070458;28;19928;-76
2022/05/04 13:00:11;;;;;;;;;;;39.30;95.00;;;;;;5070752;28;20450;-75
2022/05/04 13:02:38;;;;;;;;;;;38.90;95.80;;;;;;5070373;28;19964;-75
2022/05/04 13:05:07;;;;;;;;;;;38.40;94.10;;;;;;5070582;28;19929;-75
2022/05/04 13:07:35;;;;;;;;;;;39.10;93.80;;;;;;5070276;28;19971;-78
2022/05/04 13:10:01;;;;;;;;;;;39.00;96.00;;;;;;5069797;28;19935;-75
2022/05/04 13:12:28;;;;;;;;;;;38.80;94.20;;;;;;5069053;28;20540;-77
2022/05/04 13:14:55;;;;;;;;;;;36.50;93.20;;;;;;5070035;28;19925;-76
2022/05/04 13:17:22;;;;;;;;;;;35.40;93.80;;;;;;5073043;28;19933;-76
2022/05/04 13:19:48;;;;;;;;;;;36.30;95.10;;;;;;5071015;28;19925;-77
2022/05/04 13:22:17;;;;;;;;;;;36.40;95.80;;;;;;5070866;28;19979;-76
2022/05/04 13:24:43;;;;;;;;;;;36.00;93.70;;;;;;5072537;28;19924;-77
2022/05/04 13:27:11;;;;;;;;;;;36.50;94.00;;;;;;5073049;28;20303;-79
2022/05/04 13:29:38;;;;;;;;;;;35.80;95.30;;;;;;5074215;28;20299;-77
2022/05/04 13:32:05;;;;;;;;;;;35.60;94.20;;;;;;5073958;28;19928;-77
2022/05/04 13:34:32;;;;;;;;;;;35.60;95.80;;;;;;5073572;28;20319;-76
2022/05/04 13:36:59;;;;;;;;;;;35.60;96.40;;;;;;5074100;28;19925;-76
2022/05/04 13:39:27;;;;;;;;;;;35.70;96.30;;;;;;5074227;28;19924;-78
2022/05/04 13:41:54;;;;;;;;;;;36.10;95.30;;;;;;5073829;28;19924;-80
2022/05/04 13:44:21;;;;;;;;;;;34.80;95.20;;;;;;5072700;28;19924;-76
2022/05/04 13:46:48;;;;;;;;;;;34.80;95.30;;;;;;5073175;28;19925;-77
2022/05/04 13:49:15;;;;;;;;;;;34.40;93.60;;;;;;5072486;28;19928;-77
2022/05/04 13:54:28;;;;;;;;;;;34.90;92.20;;;;;;5072512;28;19924;-77
2022/05/04 13:56:55;;;;;;;;;;;35.00;92.10;;;;;;5072522;28;19967;-77
2022/05/04 13:59:24;;;;;;;;;;;34.80;93.60;;;;;;5072400;28;20007;-77
2022/05/04 14:01:50;;;;;;;;;;;34.70;94.00;;;;;;5073140;28;20023;-77
2022/05/04 14:04:17;;;;;;;;;;;34.30;94.00;;;;;;5072343;28;20350;-77
2022/05/04 14:06:44;;;;;;;;;;;33.80;95.60;;;;;;5072622;28;19924;-76
2022/05/04 14:09:11;;;;;;;;;;;33.60;93.70;;;;;;5072165;28;19924;-77
2022/05/04 14:11:39;;;;;;;;;;;33.00;93.70;;;;;;5072443;28;19936;-77
2022/05/04 14:16:50;;;;;;;;;;;32.60;94.30;;;;;;5072606;28;19921;-75
2022/05/04 14:19:17;;;;;;;;;;;32.30;94.40;;;;;;5072336;28;19932;-76
2022/05/04 14:21:44;;;;;;;;;;;31.80;92.90;;;;;;5072575;28;19925;-80
2022/05/04 14:24:11;;;;;;;;;;;31.80;93.50;;;;;;5071116;28;19982;-76
2022/05/04 14:26:39;;;;;;;;;;;31.20;93.20;;;;;;5071856;28;19932;-76
2022/05/04 14:29:06;;;;;;;;;;;31.00;91.50;;;;;;5071044;28;19925;-80
2022/05/04 14:31:33;;;;;;;;;;;30.10;91.50;;;;;;5072129;28;19932;-76
2022/05/04 14:34:00;;;;;;;;;;;30.10;93.10;;;;;;5071842;28;19929;-76
2022/05/04 14:36:27;;;;;;;;;;;30.70;92.20;;;;;;5071991;28;19924;-77
2022/05/04 14:38:54;;;;;;;;;;;30.80;90.00;;;;;;5070900;28;20395;-76
2022/05/04 14:41:21;;;;;;;;;;;31.10;93.00;;;;;;5071282;28;20335;-76
2022/05/04 14:43:49;;;;;;;;;;;31.50;93.20;;;;;;5069882;28;19925;-76
2022/05/04 14:46:16;;;;;;;;;;;32.00;92.50;;;;;;5071211;28;19954;-77
2022/05/04 14:48:42;;;;;;;;;;;32.10;93.20;;;;;;5071160;28;19928;-76
2022/05/04 14:51:09;;;;;;;;;;;31.50;92.40;;;;;;5071040;28;20407;-76
2022/05/04 14:53:36;;;;;;;;;;;31.20;91.00;;;;;;5070970;28;20449;-77
2022/05/04 14:56:03;;;;;;;;;;;30.70;90.10;;;;;;5071695;28;19929;-76
2022/05/04 14:58:30;;;;;;;;;;;29.90;91.70;;;;;;5071696;28;19931;-79
2022/05/04 15:00:58;;;;;;;;;;;29.30;91.60;;;;;;5071457;28;19925;-76
2022/05/04 15:06:10;;;;;;;;;;;28.10;90.90;;;;;;5071171;28;20387;-76
2022/05/04 15:08:36;;;;;;;;;;;27.20;91.30;;;;;;5071013;28;19924;-80
2022/05/04 15:11:03;;;;;;;;;;;27.40;92.50;;;;;;5071070;28;19974;-76
2022/05/04 15:13:30;;;;;;;;;;;27.10;91.20;;;;;;5070945;28;20288;-76
2022/05/04 15:15:58;;;;;;;;;;;27.50;91.80;;;;;;5071277;28;20334;-80